createdAt,value
2022-08-12T00:00:53.954Z,2.72
2022-08-12T00:03:39.742Z,2.08
2022-08-12T00:06:27.396Z,2.42
2022-08-12T00:09:13.054Z,2.13
2022-08-12T00:11:59.059Z,2.60
2022-08-12T00:14:44.680Z,2.55
2022-08-12T00:17:31.012Z,2.20
2022-08-12T00:20:16.434Z,2.50
2022-08-12T00:23:03.778Z,2.28
2022-08-12T00:26:20.654Z,2.78
2022-08-12T00:29:02.754Z,2.75
2022-08-12T00:31:48.326Z,2.40
2022-08-12T00:34:34.252Z,2.75
2022-08-12T00:37:20.123Z,2.28
2022-08-12T00:40:11.637Z,2.45
2022-08-12T00:42:41.812Z,2.58
2022-08-12T00:45:11.240Z,2.00
2022-08-12T00:47:39.749Z,2.30
2022-08-12T00:50:09.966Z,1.80
2022-08-12T00:52:37.834Z,2.20
2022-08-12T00:55:08.352Z,2.25
2022-08-12T01:00:09.692Z,2.03
2022-08-12T01:02:40.714Z,2.40
2022-08-12T01:05:29.133Z,2.88
2022-08-12T01:08:15.087Z,2.63
2022-08-12T01:11:04.739Z,2.75
2022-08-12T01:13:35.215Z,2.75
2022-08-12T01:16:05.652Z,2.85
2022-08-12T01:21:11.963Z,2.30
2022-08-12T01:23:52.317Z,2.83
2022-08-12T01:26:24.336Z,2.40
2022-08-12T01:28:58.683Z,2.60
2022-08-12T01:31:27.919Z,4.20
2022-08-12T01:34:03.657Z,2.70
2022-08-12T01:36:37.446Z,2.97
2022-08-12T01:39:06.085Z,2.53
2022-08-12T01:41:42.583Z,3.22
2022-08-12T01:44:20.606Z,2.65
2022-08-12T01:46:59.060Z,2.90
2022-08-12T01:49:51.597Z,2.42
2022-08-12T01:52:29.537Z,2.78
2022-08-12T01:54:58.649Z,2.72
2022-08-12T01:57:58.701Z,2.67
2022-08-12T02:00:46.044Z,2.60
2022-08-12T02:04:03.260Z,2.67
2022-08-12T02:06:55.255Z,2.45
2022-08-12T02:09:51.261Z,2.78
2022-08-12T02:12:31.258Z,3.25
2022-08-12T02:15:13.186Z,2.58
2022-08-12T02:18:00.181Z,2.67
2022-08-12T02:20:52.424Z,2.83
2022-08-12T02:23:27.134Z,2.60
2022-08-12T02:25:59.518Z,2.35
2022-08-12T02:28:28.851Z,2.55
2022-08-12T02:31:02.892Z,2.58
2022-08-12T02:33:32.175Z,2.65
2022-08-12T02:36:01.389Z,2.83
2022-08-12T02:38:31.201Z,3.15
2022-08-12T02:41:02.504Z,2.70
2022-08-12T02:43:38.064Z,2.58
2022-08-12T02:46:14.166Z,2.90
2022-08-12T02:48:50.562Z,2.88
2022-08-12T02:51:20.478Z,3.00
2022-08-12T02:54:05.731Z,2.83
2022-08-12T02:56:37.822Z,3.30
2022-08-12T02:59:06.868Z,2.90
2022-08-12T03:01:47.393Z,2.92
2022-08-12T03:04:26.872Z,3.00
2022-08-12T03:07:03.060Z,2.85
2022-08-12T03:09:51.485Z,2.88
2022-08-12T03:12:24.551Z,3.47
2022-08-12T03:14:54.358Z,3.15
2022-08-12T03:17:29.278Z,3.00
2022-08-12T03:20:09.545Z,2.78
2022-08-12T03:22:40.676Z,3.30
2022-08-12T03:25:17.411Z,3.63
2022-08-12T03:27:49.799Z,3.17
2022-08-12T03:30:19.517Z,3.22
2022-08-12T03:32:51.921Z,3.50
2022-08-12T03:35:41.263Z,2.78
2022-08-12T03:38:16.171Z,3.00
2022-08-12T03:41:15.234Z,3.30
2022-08-12T03:44:10.838Z,3.38
2022-08-12T03:47:01.014Z,3.45
2022-08-12T03:49:48.318Z,3.25
2022-08-12T03:52:33.784Z,3.50
2022-08-12T03:55:19.401Z,3.50
2022-08-12T03:58:07.534Z,3.30
2022-08-12T04:00:38.260Z,3.35
2022-08-12T04:03:26.376Z,3.28
2022-08-12T04:05:56.876Z,3.20
2022-08-12T04:11:12.147Z,2.88
2022-08-12T04:13:40.772Z,3.30
2022-08-12T04:16:11.020Z,3.10
2022-08-12T04:18:40.496Z,2.70
2022-08-12T04:21:10.795Z,3.45
2022-08-12T04:23:40.951Z,3.10
2022-08-12T04:26:10.409Z,3.63
2022-08-12T04:28:38.414Z,3.38
2022-08-12T04:31:06.584Z,3.20
2022-08-12T04:33:35.553Z,3.20
2022-08-12T04:36:03.390Z,3.33
2022-08-12T04:38:34.532Z,3.08
2022-08-12T04:41:03.530Z,3.28
2022-08-12T04:44:01.375Z,3.30
2022-08-12T04:46:23.322Z,3.30
2022-08-12T04:48:52.890Z,3.05
2022-08-12T04:51:21.783Z,3.17
2022-08-12T04:53:52.159Z,3.22
2022-08-12T04:56:20.659Z,3.67
2022-08-12T04:58:52.598Z,3.08
2022-08-12T05:01:21.022Z,3.35
2022-08-12T05:03:51.465Z,3.45
2022-08-12T05:06:26.318Z,3.40
2022-08-12T05:08:57.429Z,2.88
2022-08-12T05:11:25.993Z,3.92
2022-08-12T05:13:59.716Z,3.00
2022-08-12T05:16:31.149Z,3.67
2022-08-12T05:19:02.430Z,3.15
2022-08-12T05:21:30.849Z,3.88
2022-08-12T05:24:00.954Z,3.50
2022-08-12T05:26:29.445Z,2.95
2022-08-12T05:28:57.449Z,3.13
2022-08-12T05:31:47.505Z,3.00
2022-08-12T05:34:15.520Z,3.25
2022-08-12T05:36:44.842Z,3.50
2022-08-12T05:39:14.147Z,3.75
2022-08-12T05:41:42.036Z,3.60
2022-08-12T05:44:12.739Z,3.08
2022-08-12T05:46:41.273Z,3.03
2022-08-12T05:49:09.560Z,3.55
2022-08-12T05:51:40.476Z,3.75
2022-08-12T05:54:11.181Z,3.33
2022-08-12T05:56:41.484Z,3.50
2022-08-12T05:59:11.989Z,3.70
2022-08-12T06:02:09.314Z,3.30
2022-08-12T06:04:28.874Z,3.22
2022-08-12T06:06:58.057Z,2.90
2022-08-12T06:09:28.695Z,2.90
2022-08-12T06:12:04.459Z,2.70
2022-08-12T06:14:38.758Z,3.72
2022-08-12T06:17:08.758Z,2.53
2022-08-12T06:20:25.966Z,2.60
2022-08-12T06:22:26.009Z,2.97
2022-08-12T06:24:54.249Z,2.85
2022-08-12T06:27:23.422Z,2.75
2022-08-12T06:30:08.482Z,2.85
2022-08-12T06:33:04.337Z,1.92
2022-08-12T06:35:47.879Z,2.17
2022-08-12T06:38:17.735Z,2.92
2022-08-12T06:41:04.605Z,2.45
2022-08-12T06:44:05.455Z,3.42
2022-08-12T06:46:23.057Z,3.97
2022-08-12T06:48:55.106Z,2.20
2022-08-12T06:51:23.383Z,6.78
2022-08-12T06:53:51.249Z,1.98
2022-08-12T06:56:19.212Z,1.73
2022-08-12T06:58:48.641Z,2.30
2022-08-12T07:01:17.517Z,2.65
2022-08-12T07:03:45.904Z,2.53
2022-08-12T07:06:13.789Z,1.63
2022-08-12T07:08:43.996Z,2.35
2022-08-12T07:11:13.711Z,2.83
2022-08-12T07:14:11.424Z,2.15
2022-08-12T07:16:49.228Z,2.20
2022-08-12T07:19:17.349Z,10.77
2022-08-12T07:21:59.875Z,2.65
2022-08-12T07:24:31.057Z,2.00
2022-08-12T07:26:59.357Z,2.40
2022-08-12T07:29:58.144Z,1.95
2022-08-12T07:32:18.360Z,2.13
2022-08-12T07:34:47.385Z,2.40
2022-08-12T07:37:17.764Z,5.80
2022-08-12T07:39:50.362Z,3.88
2022-08-12T07:42:28.310Z,1.90
2022-08-12T07:44:56.915Z,1.80
2022-08-12T07:47:27.671Z,2.30
2022-08-12T07:50:04.453Z,1.92
2022-08-12T07:52:34.058Z,2.25
2022-08-12T07:55:02.378Z,1.80
2022-08-12T07:57:32.564Z,1.77
2022-08-12T08:02:37.926Z,1.58
2022-08-12T08:05:06.781Z,1.40
2022-08-12T08:07:35.364Z,1.45
2022-08-12T08:10:07.741Z,1.30
2022-08-12T08:12:53.077Z,1.70
2022-08-12T08:15:33.681Z,1.27
2022-08-12T08:18:14.975Z,1.40
2022-08-12T08:20:55.912Z,1.92
2022-08-12T08:23:46.383Z,1.42
2022-08-12T08:26:16.077Z,1.50
2022-08-12T08:28:44.350Z,1.73
2022-08-12T08:31:14.264Z,1.40
2022-08-12T08:34:01.407Z,1.30
2022-08-12T08:36:31.800Z,1.30
2022-08-12T08:38:59.593Z,1.40
2022-08-12T08:42:16.225Z,1.30
2022-08-12T08:44:33.360Z,1.52
2022-08-12T08:47:02.336Z,1.00
2022-08-12T08:49:31.549Z,1.30
2022-08-12T08:52:02.787Z,1.23
2022-08-12T08:54:33.633Z,1.02
2022-08-12T08:57:02.745Z,0.85
2022-08-12T08:59:30.848Z,1.20
2022-08-12T09:02:00.559Z,1.10
2022-08-12T09:05:11.741Z,1.08
2022-08-12T09:07:51.003Z,1.10
2022-08-12T09:10:15.696Z,0.82
2022-08-12T09:13:23.419Z,0.90
2022-08-12T09:15:59.325Z,1.08
2022-08-12T09:18:33.302Z,0.95
2022-08-12T09:21:01.923Z,0.88
2022-08-12T09:23:59.705Z,0.80
2022-08-12T09:26:28.774Z,1.30
2022-08-12T09:28:58.264Z,0.90
2022-08-12T09:32:02.763Z,0.77
2022-08-12T09:34:28.602Z,1.10
2022-08-12T09:37:19.568Z,0.98
2022-08-12T09:40:02.373Z,1.13
2022-08-12T09:43:15.592Z,1.20
2022-08-12T09:46:06.822Z,1.20
2022-08-12T09:48:35.809Z,1.00
2022-08-12T09:51:17.198Z,0.80
2022-08-12T09:54:08.824Z,0.90
2022-08-12T09:56:59.208Z,1.05
2022-08-12T10:00:12.641Z,0.90
2022-08-12T10:02:45.039Z,1.02
2022-08-12T10:05:13.894Z,1.00
2022-08-12T10:07:45.985Z,1.00
2022-08-12T10:10:23.764Z,0.80
2022-08-12T10:13:34.698Z,1.10
2022-08-12T10:16:06.299Z,0.95
2022-08-12T10:18:51.595Z,1.00
2022-08-12T10:21:23.402Z,0.80
2022-08-12T10:23:56.623Z,1.05
2022-08-12T10:26:44.830Z,0.80
2022-08-12T10:30:38.042Z,1.58
2022-08-12T10:32:45.570Z,0.95
2022-08-12T10:35:10.798Z,1.20
2022-08-12T10:38:32.327Z,0.80
2022-08-12T10:40:31.915Z,0.93
2022-08-12T10:43:17.947Z,0.88
2022-08-12T10:45:50.052Z,0.82
2022-08-12T10:48:27.194Z,1.15
2022-08-12T10:51:56.449Z,0.70
2022-08-12T10:54:00.451Z,1.05
2022-08-12T10:56:34.587Z,0.80
2022-08-12T10:59:10.916Z,0.80
2022-08-12T11:04:19.466Z,1.13
2022-08-12T11:04:45.215Z,1.30
2022-08-12T11:08:37.620Z,0.80
2022-08-12T11:10:07.396Z,0.63
2022-08-12T11:12:59.949Z,0.80
2022-08-12T11:15:33.107Z,0.73
2022-08-12T11:18:18.834Z,1.23
2022-08-12T11:20:48.528Z,0.80
2022-08-12T11:26:06.992Z,0.90
2022-08-12T11:28:36.988Z,0.80
2022-08-12T11:31:11.866Z,0.80
2022-08-12T11:34:05.377Z,0.90
2022-08-12T11:36:31.619Z,0.70
2022-08-12T11:39:04.159Z,1.55
2022-08-12T11:41:32.985Z,0.80
2022-08-12T11:44:24.080Z,0.85
2022-08-12T11:46:52.550Z,0.90
2022-08-12T11:49:30.954Z,0.80
2022-08-12T11:52:02.267Z,0.90
2022-08-12T11:54:30.580Z,0.90
2022-08-12T11:57:00.322Z,0.75
2022-08-12T12:02:20.767Z,1.15
2022-08-12T12:04:52.683Z,1.08
2022-08-12T12:08:35.897Z,0.85
2022-08-12T12:10:13.227Z,1.00
2022-08-12T12:12:50.072Z,1.20
2022-08-12T12:15:24.965Z,1.10
2022-08-12T12:18:05.161Z,0.73
2022-08-12T12:20:35.385Z,0.60
2022-08-12T12:23:04.577Z,1.35
2022-08-12T12:25:59.415Z,1.77
2022-08-12T12:28:37.011Z,0.80
2022-08-12T12:31:15.247Z,0.80
2022-08-12T12:33:58.048Z,0.80
2022-08-12T12:36:30.282Z,0.90
2022-08-12T12:39:00.065Z,0.63
2022-08-12T12:42:41.705Z,0.73
2022-08-12T12:44:30.232Z,0.82
2022-08-12T12:47:29.230Z,0.82
2022-08-12T12:49:54.083Z,0.93
2022-08-12T12:52:26.770Z,0.70
2022-08-12T12:54:58.825Z,1.10
2022-08-12T12:57:36.186Z,0.68
2022-08-12T13:00:16.023Z,0.77
2022-08-12T13:02:46.162Z,0.63
2022-08-12T13:05:27.821Z,0.73
2022-08-12T13:08:01.342Z,1.00
2022-08-12T13:10:36.985Z,0.70
2022-08-12T13:14:07.845Z,0.80
2022-08-12T13:15:59.254Z,0.93
2022-08-12T13:18:28.880Z,0.50
2022-08-12T13:20:59.428Z,0.55
2022-08-12T13:23:36.355Z,0.80
2022-08-12T13:26:14.256Z,0.80
2022-08-12T13:28:46.447Z,0.85
2022-08-12T13:31:22.333Z,0.73
2022-08-12T13:34:31.783Z,0.65
2022-08-12T13:36:42.402Z,0.90
2022-08-12T13:39:11.917Z,0.80
2022-08-12T13:41:39.885Z,0.65
2022-08-12T13:44:10.401Z,0.57
2022-08-12T13:46:40.919Z,0.50
2022-08-12T13:49:11.504Z,0.65
2022-08-12T13:51:54.237Z,0.40
2022-08-12T13:54:23.526Z,0.57
2022-08-12T13:56:51.617Z,0.50
2022-08-12T13:59:24.498Z,0.50
2022-08-12T14:01:54.377Z,0.50
2022-08-12T14:04:24.984Z,0.50
2022-08-12T14:06:54.057Z,0.93
2022-08-12T14:09:23.266Z,0.60
2022-08-12T14:11:59.396Z,0.32
2022-08-12T14:14:31.259Z,0.45
2022-08-12T14:17:05.625Z,0.45
2022-08-12T14:19:48.685Z,0.40
2022-08-12T14:22:21.622Z,1.00
2022-08-12T14:24:58.301Z,0.45
2022-08-12T14:28:02.551Z,0.50
2022-08-12T14:30:24.334Z,0.60
2022-08-12T14:32:57.659Z,0.45
2022-08-12T14:35:25.577Z,0.30
2022-08-12T14:37:56.605Z,0.60
2022-08-12T14:40:29.554Z,0.38
2022-08-12T14:42:58.363Z,0.30
2022-08-12T14:45:45.256Z,0.55
2022-08-12T14:48:15.966Z,0.50
2022-08-12T14:52:10.380Z,0.50
2022-08-12T14:59:56.736Z,0.45
2022-08-12T15:02:21.429Z,0.30
2022-08-12T15:04:59.195Z,0.40
2022-08-12T15:07:33.809Z,0.50
2022-08-12T15:10:13.707Z,0.50
2022-08-12T15:15:11.843Z,0.47
2022-08-12T15:17:39.857Z,0.50
2022-08-12T15:20:31.107Z,0.40
2022-08-12T15:22:58.052Z,0.40
2022-08-12T15:25:26.272Z,0.45
2022-08-12T15:28:20.380Z,0.40
2022-08-12T15:30:44.439Z,0.50
2022-08-12T15:33:18.743Z,0.40
2022-08-12T15:35:53.863Z,0.40
2022-08-12T15:38:25.253Z,0.50
2022-08-12T15:40:54.732Z,0.47
2022-08-12T15:43:52.043Z,0.70
2022-08-12T15:46:15.006Z,0.40
2022-08-12T15:51:57.360Z,0.60
2022-08-12T15:54:33.723Z,0.57
2022-08-12T15:57:03.442Z,0.88
2022-08-12T16:00:03.911Z,0.55
2022-08-12T16:02:21.234Z,0.60
2022-08-12T16:04:50.418Z,0.50
2022-08-12T16:07:26.217Z,0.77
2022-08-12T16:10:08.410Z,0.63
2022-08-12T16:12:54.922Z,0.52
2022-08-12T16:15:29.546Z,0.60
2022-08-12T16:18:19.071Z,0.60
2022-08-12T16:20:48.146Z,0.77
2022-08-12T16:23:35.909Z,0.70
2022-08-12T16:26:15.180Z,0.50
2022-08-12T16:28:48.173Z,0.70
2022-08-12T16:31:23.391Z,0.57
2022-08-12T16:33:59.535Z,0.70
2022-08-12T16:36:29.685Z,0.85
2022-08-12T16:38:57.741Z,0.60
2022-08-12T16:41:33.422Z,1.13
2022-08-12T16:44:08.311Z,0.73
2022-08-12T16:46:38.288Z,0.50
2022-08-12T16:49:09.199Z,0.52
2022-08-12T16:51:46.449Z,0.55
2022-08-12T16:54:17.195Z,0.68
2022-08-12T16:56:51.155Z,0.40
2022-08-12T16:59:23.255Z,0.60
2022-08-12T17:01:54.025Z,0.50
2022-08-12T17:04:24.763Z,0.60
2022-08-12T17:06:52.787Z,0.50
2022-08-12T17:09:21.001Z,0.57
2022-08-12T17:11:50.317Z,0.60
2022-08-12T17:14:20.373Z,0.95
2022-08-12T17:16:54.803Z,0.60
2022-08-12T17:20:02.594Z,0.63
2022-08-12T17:22:16.396Z,0.80
2022-08-12T17:24:50.577Z,0.60
2022-08-12T17:27:24.489Z,0.90
2022-08-12T17:30:02.019Z,0.70
2022-08-12T17:32:36.927Z,0.68
2022-08-12T17:35:29.805Z,0.57
2022-08-12T17:38:06.983Z,0.50
2022-08-12T17:40:37.228Z,0.60
2022-08-12T17:43:54.763Z,0.70
2022-08-12T17:45:59.857Z,0.68
2022-08-12T17:48:34.867Z,0.60
2022-08-12T17:51:15.391Z,0.80
2022-08-12T17:54:11.416Z,0.60
2022-08-12T17:56:37.690Z,0.57
2022-08-12T17:59:07.637Z,0.70
2022-08-12T18:01:36.639Z,0.70
2022-08-12T18:04:21.888Z,0.70
2022-08-12T18:06:51.497Z,0.90
2022-08-12T18:09:21.593Z,0.90
2022-08-12T18:12:12.094Z,0.90
2022-08-12T18:14:41.190Z,0.68
2022-08-12T18:17:11.369Z,1.00
2022-08-12T18:20:06.915Z,0.80
2022-08-12T18:22:32.782Z,0.90
2022-08-12T18:25:04.789Z,0.80
2022-08-12T18:27:44.002Z,0.80
2022-08-12T18:30:29.307Z,0.73
2022-08-12T18:33:03.988Z,0.60
2022-08-12T18:35:47.435Z,0.70
2022-08-12T18:38:22.498Z,1.00
2022-08-12T18:41:09.695Z,0.80
2022-08-12T18:43:59.662Z,1.00
2022-08-12T18:46:35.920Z,0.60
2022-08-12T18:49:18.821Z,0.63
2022-08-12T18:51:55.105Z,0.70
2022-08-12T18:54:26.743Z,0.80
2022-08-12T18:56:57.595Z,0.80
2022-08-12T19:00:02.163Z,0.90
2022-08-12T19:02:21.322Z,0.80
2022-08-12T19:04:51.485Z,0.93
2022-08-12T19:07:24.737Z,0.60
2022-08-12T19:09:58.371Z,0.82
2022-08-12T19:12:55.372Z,0.90
2022-08-12T19:15:25.894Z,0.77
2022-08-12T19:17:56.428Z,1.10
2022-08-12T19:20:30.842Z,0.73
2022-08-12T19:23:07.881Z,0.83
2022-08-12T19:25:59.614Z,0.98
2022-08-12T19:28:35.301Z,0.95
2022-08-12T19:31:58.719Z,0.90
2022-08-12T19:37:27.063Z,0.80
2022-08-12T19:40:10.189Z,0.82
2022-08-12T19:42:53.886Z,0.80
2022-08-12T19:45:43.969Z,0.90
2022-08-12T19:48:19.912Z,1.00
2022-08-12T19:50:52.423Z,1.02
2022-08-12T19:53:22.582Z,0.90
2022-08-12T19:55:54.768Z,1.00
2022-08-12T19:58:24.317Z,0.95
2022-08-12T20:00:55.014Z,0.80
2022-08-12T20:03:38.033Z,1.10
2022-08-12T20:06:13.626Z,1.00
2022-08-12T20:08:49.366Z,1.10
2022-08-12T20:12:11.622Z,0.90
2022-08-12T20:14:18.073Z,0.90
2022-08-12T20:16:52.240Z,0.93
2022-08-12T20:19:24.589Z,1.00
2022-08-12T20:22:14.840Z,1.33
2022-08-12T20:24:48.449Z,0.90
2022-08-12T20:27:29.237Z,1.30
2022-08-12T20:30:11.505Z,1.10
2022-08-12T20:32:47.626Z,0.70
2022-08-12T20:35:19.668Z,1.80
2022-08-12T20:38:07.181Z,1.30
2022-08-12T20:40:41.942Z,1.10
2022-08-12T20:43:19.038Z,1.00
2022-08-12T20:45:57.417Z,1.98
2022-08-12T20:48:28.577Z,1.08
2022-08-12T20:51:04.510Z,0.90
2022-08-12T20:53:54.140Z,1.48
2022-08-12T20:56:30.271Z,1.23
2022-08-12T20:59:02.702Z,1.48
2022-08-12T21:01:45.936Z,1.27
2022-08-12T21:04:35.379Z,1.00
2022-08-12T21:07:09.458Z,1.20
2022-08-12T21:09:41.502Z,1.00
2022-08-12T21:12:27.795Z,1.40
2022-08-12T21:15:17.491Z,1.50
2022-08-12T21:18:01.128Z,1.10
2022-08-12T21:20:37.863Z,1.35
2022-08-12T21:23:07.538Z,1.30
2022-08-12T21:25:35.820Z,1.15
2022-08-12T21:28:07.476Z,1.33
2022-08-12T21:30:37.291Z,1.10
2022-08-12T21:33:09.859Z,1.25
2022-08-12T21:35:42.862Z,1.00
2022-08-12T21:38:10.749Z,1.10
2022-08-12T21:40:51.546Z,1.40
2022-08-12T21:43:21.098Z,1.15
2022-08-12T21:46:00.704Z,1.10
2022-08-12T21:50:57.554Z,1.10
2022-08-12T21:54:05.760Z,1.00
2022-08-12T21:56:34.112Z,1.40
2022-08-12T21:59:02.924Z,1.20
2022-08-12T22:01:47.606Z,1.40
2022-08-12T22:04:35.324Z,1.10
2022-08-12T22:07:03.350Z,1.50
2022-08-12T22:09:43.409Z,1.27
2022-08-12T22:12:29.178Z,1.05
2022-08-12T22:14:57.076Z,1.45
2022-08-12T22:17:50.344Z,1.20
2022-08-12T22:20:22.426Z,1.38
2022-08-12T22:23:00.458Z,1.13
2022-08-12T22:25:30.498Z,1.00
2022-08-12T22:28:18.014Z,1.52
2022-08-12T22:31:10.744Z,1.20
2022-08-12T22:33:54.083Z,1.10
2022-08-12T22:36:29.113Z,1.70
2022-08-12T22:38:59.303Z,1.20
2022-08-12T22:41:56.695Z,1.60
2022-08-12T22:44:54.315Z,1.30
2022-08-12T22:47:53.680Z,1.10
2022-08-12T22:50:27.543Z,1.27
2022-08-12T22:53:15.062Z,1.15
2022-08-12T22:55:59.889Z,1.20
2022-08-12T22:58:36.890Z,1.50
2022-08-12T23:01:10.815Z,1.50
2022-08-12T23:03:48.713Z,1.30
2022-08-12T23:06:23.174Z,3.37
2022-08-12T23:08:51.846Z,2.00
2022-08-12T23:11:23.871Z,1.45
2022-08-12T23:13:57.064Z,1.90
2022-08-12T23:16:30.922Z,1.35
2022-08-12T23:19:09.467Z,1.25
2022-08-12T23:22:05.954Z,1.25
2022-08-12T23:24:32.538Z,1.20
2022-08-12T23:27:21.739Z,1.30
2022-08-12T23:30:17.534Z,1.42
2022-08-12T23:32:38.415Z,1.35
2022-08-12T23:35:08.032Z,1.20
2022-08-12T23:37:47.577Z,1.42
2022-08-12T23:40:22.469Z,1.30
2022-08-12T23:42:54.260Z,1.55
2022-08-12T23:45:31.379Z,1.80
2022-08-12T23:48:00.480Z,1.40
2022-08-12T23:50:33.720Z,1.98
2022-08-12T23:53:17.091Z,1.30
2022-08-12T23:55:50.649Z,1.30
2022-08-12T23:58:25.942Z,1.45
